createdAt,value
2022-11-16T00:01:08.449Z,96.95
2022-11-16T00:04:12.207Z,97.18
2022-11-16T00:07:14.958Z,96.54
2022-11-16T00:10:17.817Z,95.64
2022-11-16T00:13:20.973Z,96.35
2022-11-16T00:16:23.668Z,95.54
2022-11-16T00:19:28.523Z,95.61
2022-11-16T00:22:31.279Z,95.48
2022-11-16T00:25:33.982Z,95.92
2022-11-16T00:28:36.779Z,95.57
2022-11-16T00:31:39.467Z,95.03
2022-11-16T00:34:42.200Z,96.28
2022-11-16T00:37:44.874Z,95.68
2022-11-16T00:40:50.267Z,95.15
2022-11-16T00:43:52.866Z,95.58
2022-11-16T00:46:55.585Z,95.52
2022-11-16T00:49:58.225Z,96.04
2022-11-16T00:53:01.139Z,96.65
2022-11-16T00:56:05.207Z,96.25
2022-11-16T00:59:13.371Z,96.32
2022-11-16T01:02:18.280Z,95.61
2022-11-16T01:05:22.631Z,95.48
2022-11-16T01:08:25.499Z,95.28
2022-11-16T01:11:47.800Z,95.29
2022-11-16T01:14:50.517Z,95.57
2022-11-16T01:17:55.204Z,95.73
2022-11-16T01:20:57.919Z,96.73
2022-11-16T01:24:00.899Z,95.52
2022-11-16T01:27:03.727Z,95.46
2022-11-16T01:30:12.774Z,95.37
2022-11-16T01:33:19.876Z,96.00
2022-11-16T01:36:22.877Z,94.87
2022-11-16T01:39:25.737Z,94.61
2022-11-16T01:42:33.656Z,94.80
2022-11-16T01:45:42.483Z,94.91
2022-11-16T01:48:48.806Z,94.77
2022-11-16T01:51:58.772Z,94.57
2022-11-16T01:55:04.117Z,94.87
2022-11-16T01:58:21.155Z,94.87
2022-11-16T02:01:29.057Z,95.15
2022-11-16T02:04:35.644Z,95.75
2022-11-16T02:08:06.887Z,95.92
2022-11-16T02:11:54.062Z,95.59
2022-11-16T02:15:25.705Z,95.07
2022-11-16T02:19:11.478Z,94.65
2022-11-16T02:22:39.510Z,95.31
2022-11-16T02:26:01.464Z,95.54
2022-11-16T02:29:25.989Z,96.11
2022-11-16T02:32:34.578Z,96.49
2022-11-16T02:35:44.398Z,96.43
2022-11-16T02:39:01.051Z,96.50
2022-11-16T02:42:08.399Z,95.98
2022-11-16T02:45:17.519Z,96.59
2022-11-16T02:48:30.275Z,96.29
2022-11-16T02:51:36.236Z,95.39
2022-11-16T02:54:39.357Z,95.46
2022-11-16T02:57:49.481Z,94.54
2022-11-16T03:01:06.579Z,94.28
2022-11-16T03:04:26.893Z,94.29
2022-11-16T03:07:35.085Z,95.04
2022-11-16T03:10:59.153Z,94.74
2022-11-16T03:14:13.652Z,95.22
2022-11-16T03:17:26.549Z,95.30
2022-11-16T03:20:34.081Z,95.64
2022-11-16T03:23:37.352Z,94.61
2022-11-16T03:27:00.745Z,94.80
2022-11-16T03:30:14.841Z,95.03
2022-11-16T03:33:32.704Z,95.76
2022-11-16T03:36:39.037Z,95.76
2022-11-16T03:39:42.962Z,95.94
2022-11-16T03:42:49.690Z,95.41
2022-11-16T03:45:53.386Z,95.16
2022-11-16T03:48:58.798Z,95.38
2022-11-16T03:52:06.105Z,95.69
2022-11-16T03:55:09.783Z,95.72
2022-11-16T03:58:12.587Z,95.35
2022-11-16T04:01:15.579Z,94.87
2022-11-16T04:04:37.911Z,94.32
2022-11-16T04:07:59.380Z,93.79
2022-11-16T04:11:21.044Z,94.26
2022-11-16T04:14:44.005Z,94.67
2022-11-16T04:18:08.434Z,95.06
2022-11-16T04:21:38.370Z,95.33
2022-11-16T04:24:44.412Z,95.09
2022-11-16T04:28:06.233Z,95.06
2022-11-16T04:31:27.351Z,94.74
2022-11-16T04:34:54.812Z,94.93
2022-11-16T04:37:59.379Z,94.68
2022-11-16T04:41:26.499Z,94.79
2022-11-16T04:44:49.293Z,94.71
2022-11-16T04:47:53.458Z,95.18
2022-11-16T04:51:00.354Z,94.70
2022-11-16T04:54:03.309Z,94.86
2022-11-16T04:57:06.000Z,95.04
2022-11-16T05:00:09.642Z,94.63
2022-11-16T05:03:14.615Z,94.81
2022-11-16T05:06:17.737Z,94.61
2022-11-16T05:09:21.276Z,94.80
2022-11-16T05:12:26.072Z,94.70
2022-11-16T05:15:32.709Z,95.02
2022-11-16T05:18:36.828Z,94.92
2022-11-16T05:21:40.193Z,94.67
2022-11-16T05:24:44.809Z,94.88
2022-11-16T05:27:47.541Z,94.60
2022-11-16T05:30:50.307Z,94.36
2022-11-16T05:33:57.435Z,94.49
2022-11-16T05:37:00.458Z,94.00
2022-11-16T05:40:04.443Z,94.54
2022-11-16T05:43:16.884Z,94.30
2022-11-16T05:46:28.456Z,94.24
2022-11-16T05:49:34.039Z,94.15
2022-11-16T05:52:36.762Z,93.45
2022-11-16T05:55:43.465Z,93.91
2022-11-16T05:58:47.099Z,94.34
2022-11-16T06:01:51.176Z,94.60
2022-11-16T06:04:54.289Z,94.27
2022-11-16T06:07:57.340Z,93.95
2022-11-16T06:11:08.481Z,93.92
2022-11-16T06:14:12.542Z,93.67
2022-11-16T06:17:15.565Z,93.36
2022-11-16T06:20:19.332Z,92.99
2022-11-16T06:23:22.600Z,92.95
2022-11-16T06:26:29.415Z,93.08
2022-11-16T06:29:32.792Z,92.87
2022-11-16T06:32:36.000Z,92.19
2022-11-16T06:35:40.476Z,92.15
2022-11-16T06:38:46.668Z,92.13
2022-11-16T06:41:52.337Z,91.86
2022-11-16T06:44:56.620Z,92.27
2022-11-16T06:48:05.150Z,91.48
2022-11-16T06:51:09.953Z,91.26
2022-11-16T06:54:12.849Z,91.13
2022-11-16T06:57:15.856Z,90.79
2022-11-16T07:00:19.633Z,90.73
2022-11-16T07:03:23.774Z,90.61
2022-11-16T07:06:26.847Z,91.07
2022-11-16T07:09:31.430Z,90.94
2022-11-16T07:12:34.117Z,89.92
2022-11-16T07:15:37.880Z,90.63
2022-11-16T07:18:42.068Z,90.17
2022-11-16T07:21:45.023Z,90.71
2022-11-16T07:24:52.805Z,90.69
2022-11-16T07:27:58.740Z,89.72
2022-11-16T07:31:11.306Z,89.68
2022-11-16T07:34:14.351Z,89.50
2022-11-16T07:37:28.193Z,88.24
2022-11-16T07:40:30.928Z,88.20
2022-11-16T07:43:37.228Z,88.65
2022-11-16T07:46:48.133Z,87.56
2022-11-16T07:49:52.252Z,87.34
2022-11-16T07:52:57.211Z,89.67
2022-11-16T07:56:00.783Z,88.47
2022-11-16T07:59:06.657Z,89.97
2022-11-16T08:02:12.893Z,90.76
2022-11-16T08:05:17.161Z,89.92
2022-11-16T08:08:22.301Z,91.09
2022-11-16T08:11:25.765Z,91.10
2022-11-16T08:14:28.910Z,90.87
2022-11-16T08:17:32.445Z,90.00
2022-11-16T08:20:37.031Z,89.39
2022-11-16T08:23:40.970Z,89.56
2022-11-16T08:26:43.772Z,90.48
2022-11-16T08:29:49.226Z,90.64
2022-11-16T08:32:51.899Z,90.11
2022-11-16T08:35:55.436Z,88.97
2022-11-16T08:38:58.441Z,90.25
2022-11-16T08:42:01.225Z,90.01
2022-11-16T08:45:04.209Z,89.64
2022-11-16T08:48:07.194Z,89.34
2022-11-16T08:51:19.684Z,89.72
2022-11-16T08:54:30.041Z,90.46
2022-11-16T08:57:33.658Z,90.71
2022-11-16T09:00:40.842Z,90.18
2022-11-16T09:03:44.542Z,90.29
2022-11-16T09:06:47.505Z,90.12
2022-11-16T09:09:50.382Z,91.10
2022-11-16T09:12:53.172Z,91.49
2022-11-16T09:15:57.587Z,90.74
2022-11-16T09:19:01.897Z,89.46
2022-11-16T09:22:25.852Z,89.45
2022-11-16T09:25:28.715Z,89.33
2022-11-16T09:28:32.527Z,87.36
2022-11-16T09:31:38.361Z,87.39
2022-11-16T09:34:42.849Z,88.29
2022-11-16T09:37:46.013Z,88.56
2022-11-16T09:40:51.542Z,87.54
2022-11-16T09:44:06.607Z,85.66
2022-11-16T09:47:23.767Z,85.13
2022-11-16T09:50:53.008Z,84.95
2022-11-16T09:53:58.298Z,81.60
2022-11-16T09:57:12.170Z,82.35
2022-11-16T10:00:23.660Z,82.78
2022-11-16T10:03:38.957Z,83.78
2022-11-16T10:06:53.888Z,84.02
2022-11-16T10:09:57.069Z,84.66
2022-11-16T10:13:20.677Z,83.75
2022-11-16T10:16:38.397Z,83.60
2022-11-16T10:19:47.504Z,83.45
2022-11-16T10:23:00.351Z,84.63
2022-11-16T10:26:16.018Z,84.76
2022-11-16T10:29:45.333Z,84.97
2022-11-16T10:33:10.864Z,85.41
2022-11-16T10:36:15.811Z,85.26
2022-11-16T10:39:20.619Z,86.95
2022-11-16T10:42:36.610Z,87.31
2022-11-16T10:45:43.692Z,85.91
2022-11-16T10:48:55.655Z,87.49
2022-11-16T10:51:58.555Z,88.67
2022-11-16T10:55:01.288Z,88.37
2022-11-16T10:58:05.765Z,89.52
2022-11-16T11:01:12.783Z,89.44
2022-11-16T11:04:22.196Z,90.17
2022-11-16T11:07:59.972Z,90.18
2022-11-16T11:11:25.340Z,90.48
2022-11-16T11:14:28.067Z,91.11
2022-11-16T11:17:32.576Z,90.44
2022-11-16T11:20:39.053Z,89.44
2022-11-16T11:23:49.364Z,89.26
2022-11-16T11:26:59.222Z,88.88
2022-11-16T11:30:02.395Z,89.66
2022-11-16T11:33:12.293Z,89.93
2022-11-16T11:36:38.564Z,90.49
2022-11-16T11:39:41.317Z,90.85
2022-11-16T11:43:01.242Z,90.47
2022-11-16T11:46:15.612Z,90.64
2022-11-16T11:49:33.291Z,90.12
2022-11-16T11:52:47.167Z,91.04
2022-11-16T11:55:59.922Z,91.58
2022-11-16T11:59:04.976Z,91.45
2022-11-16T12:02:28.512Z,90.53
2022-11-16T12:05:56.479Z,90.63
2022-11-16T12:09:16.317Z,89.57
2022-11-16T12:12:35.974Z,89.41
2022-11-16T12:16:16.978Z,88.72
2022-11-16T12:19:59.631Z,88.63
2022-11-16T12:23:14.712Z,88.46
2022-11-16T12:26:23.228Z,88.31
2022-11-16T12:29:37.342Z,87.03
2022-11-16T12:32:52.504Z,88.13
2022-11-16T12:36:00.917Z,87.47
2022-11-16T12:39:22.727Z,87.26
2022-11-16T12:42:33.360Z,87.65
2022-11-16T12:45:39.002Z,88.21
2022-11-16T12:49:04.092Z,86.41
2022-11-16T12:52:56.909Z,86.36
2022-11-16T12:56:33.925Z,86.33
2022-11-16T12:59:45.721Z,86.69
2022-11-16T13:03:09.488Z,87.11
2022-11-16T13:06:16.873Z,87.59
2022-11-16T13:09:30.901Z,87.44
2022-11-16T13:12:36.124Z,86.33
2022-11-16T13:15:41.227Z,86.38
2022-11-16T13:18:44.601Z,87.36
2022-11-16T13:22:17.353Z,87.36
2022-11-16T13:25:30.867Z,87.61
2022-11-16T13:28:47.651Z,87.13
2022-11-16T13:32:13.377Z,86.91
2022-11-16T13:35:18.304Z,87.89
2022-11-16T13:38:53.051Z,87.62
2022-11-16T13:42:12.316Z,85.81
2022-11-16T13:45:20.838Z,86.79
2022-11-16T13:48:35.562Z,88.73
2022-11-16T13:51:38.760Z,88.22
2022-11-16T13:54:46.427Z,88.63
2022-11-16T13:57:55.689Z,87.80
2022-11-16T14:01:16.152Z,87.24
2022-11-16T14:04:40.979Z,88.25
2022-11-16T14:07:50.017Z,89.13
2022-11-16T14:10:52.876Z,89.84
2022-11-16T14:13:55.825Z,90.13
2022-11-16T14:16:58.894Z,90.84
2022-11-16T14:20:02.596Z,91.18
2022-11-16T14:23:27.332Z,91.77
2022-11-16T14:26:57.382Z,92.23
2022-11-16T14:30:22.844Z,92.70
2022-11-16T14:33:31.764Z,93.65
2022-11-16T14:36:42.659Z,93.96
2022-11-16T14:39:45.479Z,94.27
2022-11-16T14:43:15.353Z,94.69
2022-11-16T14:46:34.853Z,94.89
2022-11-16T14:49:38.051Z,94.19
2022-11-16T14:52:47.601Z,94.80
2022-11-16T14:55:50.394Z,94.30
2022-11-16T14:58:57.036Z,94.49
2022-11-16T15:02:05.886Z,93.96
2022-11-16T15:05:16.900Z,93.34
2022-11-16T15:08:26.463Z,94.04
2022-11-16T15:12:04.315Z,94.59
2022-11-16T15:15:13.620Z,95.09
2022-11-16T15:18:22.102Z,95.46
2022-11-16T15:21:25.808Z,95.59
2022-11-16T15:24:34.182Z,96.06
2022-11-16T15:27:40.531Z,96.14
2022-11-16T15:30:46.931Z,96.08
2022-11-16T15:33:50.672Z,96.17
2022-11-16T15:36:53.348Z,96.47
2022-11-16T15:39:58.108Z,96.35
2022-11-16T15:43:04.041Z,96.87
2022-11-16T15:46:08.524Z,96.99
2022-11-16T15:49:30.594Z,97.49
2022-11-16T15:52:44.153Z,97.57
2022-11-16T15:55:50.227Z,98.28
2022-11-16T15:58:55.087Z,98.52
2022-11-16T16:01:58.225Z,98.91
2022-11-16T16:05:03.558Z,98.81
2022-11-16T16:08:23.566Z,99.12
2022-11-16T16:11:28.270Z,98.97
2022-11-16T16:14:31.835Z,99.04
2022-11-16T16:17:34.482Z,99.17
2022-11-16T16:20:37.951Z,99.31
2022-11-16T16:23:46.232Z,99.21
2022-11-16T16:26:49.049Z,99.33
2022-11-16T16:29:53.725Z,99.42
2022-11-16T16:32:57.034Z,98.81
2022-11-16T16:35:59.822Z,98.54
2022-11-16T16:39:03.170Z,98.12
2022-11-16T16:42:12.055Z,98.41
2022-11-16T16:45:22.328Z,98.06
2022-11-16T16:48:25.204Z,97.68
2022-11-16T16:51:28.375Z,97.61
2022-11-16T16:54:34.817Z,97.69
2022-11-16T16:57:40.781Z,97.83
2022-11-16T17:00:43.583Z,97.47
2022-11-16T17:03:47.386Z,97.01
2022-11-16T17:06:52.337Z,96.86
2022-11-16T17:09:55.095Z,96.40
2022-11-16T17:12:57.903Z,96.67
2022-11-16T17:16:04.689Z,97.21
2022-11-16T17:19:08.982Z,97.55
2022-11-16T17:22:12.378Z,97.37
2022-11-16T17:25:15.325Z,97.49
2022-11-16T17:28:18.133Z,96.96
2022-11-16T17:31:21.249Z,97.49
2022-11-16T17:34:24.130Z,97.22
2022-11-16T17:37:26.836Z,97.28
2022-11-16T17:40:29.938Z,96.99
2022-11-16T17:43:33.639Z,97.71
2022-11-16T17:46:37.161Z,97.52
2022-11-16T17:49:40.550Z,97.52
2022-11-16T17:52:43.344Z,97.08
2022-11-16T17:55:46.233Z,97.18
2022-11-16T17:58:52.659Z,97.06
2022-11-16T18:01:55.524Z,97.28
2022-11-16T18:04:58.405Z,97.01
2022-11-16T18:08:01.399Z,97.54
2022-11-16T18:11:09.938Z,97.28
2022-11-16T18:14:12.815Z,97.56
2022-11-16T18:17:15.591Z,97.39
2022-11-16T18:20:18.350Z,97.25
2022-11-16T18:23:21.417Z,96.94
2022-11-16T18:26:24.833Z,96.61
2022-11-16T18:29:27.805Z,96.67
2022-11-16T18:32:30.776Z,96.90
2022-11-16T18:35:33.785Z,96.71
2022-11-16T18:38:37.650Z,96.38
2022-11-16T18:41:50.160Z,96.52
2022-11-16T18:44:57.063Z,96.53
2022-11-16T18:47:59.988Z,96.44
2022-11-16T18:51:04.536Z,96.92
2022-11-16T18:54:08.646Z,96.74
2022-11-16T18:57:11.454Z,96.54
2022-11-16T19:00:15.406Z,96.57
2022-11-16T19:03:18.563Z,95.90
2022-11-16T19:06:22.638Z,95.99
2022-11-16T19:09:25.640Z,95.74
2022-11-16T19:12:28.910Z,96.24
2022-11-16T19:15:34.118Z,96.21
2022-11-16T19:18:38.475Z,96.63
2022-11-16T19:21:42.257Z,96.03
2022-11-16T19:24:45.311Z,95.10
2022-11-16T19:27:48.313Z,95.19
2022-11-16T19:30:51.396Z,95.22
2022-11-16T19:34:13.380Z,94.97
2022-11-16T19:37:17.062Z,94.65
2022-11-16T19:40:24.870Z,94.91
2022-11-16T19:43:28.299Z,94.91
2022-11-16T19:46:32.999Z,94.40
2022-11-16T19:49:36.303Z,93.96
2022-11-16T19:52:39.704Z,94.07
2022-11-16T19:55:44.256Z,93.53
2022-11-16T19:58:48.241Z,93.58
2022-11-16T20:01:51.367Z,93.48
2022-11-16T20:04:54.322Z,93.19
2022-11-16T20:07:57.033Z,93.60
2022-11-16T20:10:59.726Z,93.71
2022-11-16T20:14:04.884Z,93.67
2022-11-16T20:17:08.079Z,93.78
2022-11-16T20:20:11.348Z,94.32
2022-11-16T20:23:15.697Z,94.19
2022-11-16T20:26:20.579Z,94.00
2022-11-16T20:29:23.749Z,94.21
2022-11-16T20:32:27.489Z,94.16
2022-11-16T20:35:30.469Z,94.56
2022-11-16T20:38:34.681Z,93.99
2022-11-16T20:41:37.832Z,94.28
2022-11-16T20:44:40.858Z,93.93
2022-11-16T20:47:43.772Z,93.90
2022-11-16T20:50:51.835Z,93.96
2022-11-16T20:53:54.799Z,93.48
2022-11-16T20:56:57.513Z,93.68
2022-11-16T21:00:00.890Z,93.87
2022-11-16T21:03:03.835Z,93.33
2022-11-16T21:06:10.239Z,93.61
2022-11-16T21:09:15.673Z,93.11
2022-11-16T21:12:42.534Z,92.74
2022-11-16T21:15:54.485Z,93.00
2022-11-16T21:18:57.427Z,92.83
2022-11-16T21:22:00.277Z,92.81
2022-11-16T21:25:03.234Z,91.79
2022-11-16T21:28:05.944Z,92.23
2022-11-16T21:31:11.649Z,91.63
2022-11-16T21:34:14.367Z,91.33
2022-11-16T21:37:17.054Z,91.62
2022-11-16T21:40:19.856Z,91.74
2022-11-16T21:43:22.619Z,91.41
2022-11-16T21:46:26.773Z,91.67
2022-11-16T21:49:29.438Z,91.76
2022-11-16T21:52:32.060Z,92.00
2022-11-16T21:55:35.364Z,91.30
2022-11-16T21:58:39.320Z,90.80
2022-11-16T22:02:00.329Z,90.68
2022-11-16T22:05:21.755Z,90.58
2022-11-16T22:08:24.728Z,90.90
2022-11-16T22:11:27.536Z,90.06
2022-11-16T22:14:30.278Z,90.32
2022-11-16T22:17:33.485Z,90.62
2022-11-16T22:20:36.190Z,90.97
2022-11-16T22:23:39.216Z,90.82
2022-11-16T22:26:42.431Z,90.26
2022-11-16T22:29:45.108Z,90.58
2022-11-16T22:32:47.829Z,90.31
2022-11-16T22:35:50.504Z,89.69
2022-11-16T22:38:53.431Z,90.16
2022-11-16T22:41:56.197Z,90.21
2022-11-16T22:44:58.959Z,90.31
2022-11-16T22:48:01.604Z,90.30
2022-11-16T22:51:19.740Z,89.82
2022-11-16T22:54:28.331Z,89.74
2022-11-16T22:57:31.450Z,90.08
2022-11-16T23:00:40.560Z,90.40
2022-11-16T23:03:45.110Z,90.41
2022-11-16T23:06:47.878Z,90.40
2022-11-16T23:09:50.506Z,90.99
2022-11-16T23:13:12.236Z,91.48
2022-11-16T23:16:14.972Z,91.00
2022-11-16T23:19:38.428Z,90.78
2022-11-16T23:22:59.825Z,91.10
2022-11-16T23:26:24.347Z,90.08
2022-11-16T23:29:27.028Z,90.86
2022-11-16T23:32:30.858Z,91.00
2022-11-16T23:35:33.585Z,90.70
2022-11-16T23:38:36.426Z,90.89
2022-11-16T23:41:57.736Z,90.46
2022-11-16T23:45:00.556Z,90.38
2022-11-16T23:48:03.314Z,90.73
2022-11-16T23:51:06.224Z,90.46
2022-11-16T23:54:08.873Z,90.84
2022-11-16T23:57:11.718Z,90.87
